This is the latest recevied weather packets stored in our database for station/object G8SIB-9. If no packets are shown the sender has not sent any weather packets the latest 10 day(s).
| Time | Temp. | Humidity | Pressure | Rain* | Wind** | Luminosity | Snow |
|---|---|---|---|---|---|---|---|
| 1777892618 | 16.67° C | 65% | 1011.7 hPa | 0 mm | - | - | - |
| 1777892017 | 15.56° C | 69% | 1011.6 hPa | 0 mm | - | - | - |
| 1777891417 | 15.56° C | 72% | 1011.6 hPa | 0 mm | - | - | - |
| 1777890816 | 14.44° C | 73% | 1011.7 hPa | 0 mm | - | - | - |
| 1777890215 | 15° C | 74% | 1011.7 hPa | 0 mm | - | - | - |
| 1777889615 | 14.44° C | 74% | 1011.7 hPa | 0 mm | - | - | - |
| 1777889014 | 13.33° C | 78% | 1011.7 hPa | 0 mm | - | - | - |
| 1777888414 | 13.33° C | 77% | 1011.8 hPa | 0 mm | - | - | - |
| 1777887813 | 13.33° C | 79% | 1011.7 hPa | 0 mm | - | - | - |
| 1777887213 | 13.33° C | 80% | 1011.7 hPa | 0 mm | - | - | - |
| 1777886612 | 12.78° C | 81% | 1011.6 hPa | 0 mm | - | - | - |
| 1777886012 | 12.22° C | 85% | 1011.6 hPa | 0 mm | - | - | - |
| 1777885412 | 12.78° C | 83% | 1013.9 hPa | 0 mm | - | - | - |
| 1777884811 | 12.22° C | 85% | 1011.6 hPa | 0 mm | - | - | - |
| 1777884210 | 12.22° C | 86% | 1011.4 hPa | 0 mm | - | - | - |
| 1777883609 | 12.22° C | 88% | 1011.2 hPa | 0 mm | - | - | - |
| 1777883008 | 11.67° C | 89% | 1011.1 hPa | 0 mm | - | - | - |
| 1777882407 | 11.67° C | 89% | 1011 hPa | 0 mm | - | - | - |
| 1777881806 | 11.11° C | 90% | 1011.2 hPa | 0 mm | - | - | - |
| 1777881206 | 11.11° C | 91% | 1011.1 hPa | 0 mm | - | - | - |
| 1777880605 | 11.11° C | 92% | 1011.1 hPa | 0 mm | - | - | - |
| 1777880005 | 11.11° C | 91% | 1011 hPa | 0 mm | - | - | - |
| 1777879404 | 11.11° C | 91% | 1011 hPa | 0 mm | - | - | - |
| 1777878803 | 11.11° C | 91% | 1010.9 hPa | 0 mm | - | - | - |
| 1777878202 | 11.11° C | 90% | 1010.7 hPa | 0 mm | - | - | - |
* Rain latest hour (hover to see other rain measurements)
** Current wind speed in m/s (hover to see current wind gust speed)